Time;durP1;ratioP1;P1;durP2;ratioP2;P2;SDS_P1;SDS_P2;PMS_P1;PMS_P2;Temp;Humidity;BMP_temperature;BMP_pressure;BME280_temperature;BME280_humidity;BME280_pressure;Samples;Min_cycle;Max_cycle;Signal;HPM_P1;HPM_P2
2021/08/07 00:01:46;;;;;;;0.50;0.40;;;13.90;92.90;;;;;;5046567;28;20751;-82
2021/08/07 00:04:13;;;;;;;0.57;0.40;;;13.40;93.80;;;;;;5060986;28;20382;-81
2021/08/07 00:06:40;;;;;;;3.22;0.43;;;13.10;93.70;;;;;;5045740;28;20912;-82
2021/08/07 00:09:07;;;;;;;0.68;0.50;;;13.00;94.40;;;;;;5075294;28;20995;-81
2021/08/07 00:11:34;;;;;;;0.80;0.40;;;12.80;95.80;;;;;;5068496;28;20393;-81
2021/08/07 00:14:01;;;;;;;1.17;0.68;;;12.50;95.40;;;;;;5052071;28;20888;-81
2021/08/07 00:16:30;;;;;;;0.43;0.43;;;12.40;96.30;;;;;;5069878;28;20382;-80
2021/08/07 00:18:58;;;;;;;1.50;0.60;;;12.40;96.30;;;;;;5069639;28;20373;-81
2021/08/07 00:21:24;;;;;;;0.60;0.60;;;12.40;96.10;;;;;;5056292;28;20391;-82
2021/08/07 00:23:51;;;;;;;0.50;0.50;;;12.30;97.20;;;;;;5052860;28;20390;-82
2021/08/07 00:26:19;;;;;;;0.77;0.75;;;12.30;96.80;;;;;;5068776;28;20390;-81
2021/08/07 00:28:46;;;;;;;1.85;0.55;;;12.30;97.70;;;;;;5068215;28;20390;-81
2021/08/07 00:31:13;;;;;;;0.70;0.70;;;12.40;98.30;;;;;;5061843;28;20383;-82
2021/08/07 00:33:40;;;;;;;1.08;0.60;;;12.40;97.40;;;;;;5065180;28;20390;-82
2021/08/07 00:36:07;;;;;;;0.95;0.57;;;12.40;97.10;;;;;;5069205;28;20368;-81
2021/08/07 00:38:34;;;;;;;1.40;0.63;;;12.40;97.50;;;;;;5069749;28;20811;-81
2021/08/07 00:41:01;;;;;;;2.60;0.75;;;12.40;96.90;;;;;;5068447;28;20386;-81
2021/08/07 00:43:28;;;;;;;0.50;0.50;;;12.50;96.90;;;;;;5069463;28;20382;-81
2021/08/07 00:45:56;;;;;;;2.08;0.70;;;12.60;96.90;;;;;;5071530;28;20420;-81
2021/08/07 00:48:24;;;;;;;1.08;0.80;;;12.60;97.50;;;;;;5064430;28;20455;-82
2021/08/07 00:50:51;;;;;;;0.90;0.60;;;12.70;97.60;;;;;;5088513;28;20376;-82
2021/08/07 00:53:20;;;;;;;1.15;0.60;;;12.70;97.20;;;;;;5052201;28;20659;-81
2021/08/07 00:55:47;;;;;;;0.80;0.60;;;12.60;96.10;;;;;;5052136;28;20386;-82
2021/08/07 00:58:14;;;;;;;0.68;0.60;;;12.70;97.40;;;;;;5068548;28;20378;-82
2021/08/07 01:00:41;;;;;;;0.73;0.63;;;12.70;97.30;;;;;;5082169;28;20921;-83
2021/08/07 01:03:22;;;;;;;0.68;0.68;;;12.70;97.80;;;;;;5090104;28;20373;-82
2021/08/07 01:06:17;;;;;;;0.80;0.70;;;12.70;96.90;;;;;;5089339;28;20388;-82
2021/08/07 01:08:56;;;;;;;1.50;0.60;;;12.80;96.20;;;;;;5070942;28;20755;-81
2021/08/07 01:11:36;;;;;;;0.95;0.80;;;12.80;95.20;;;;;;5076016;28;20946;-82
2021/08/07 01:14:06;;;;;;;1.40;0.73;;;12.80;95.60;;;;;;5085920;28;20380;-82
2021/08/07 01:16:39;;;;;;;0.95;0.77;;;12.70;95.60;;;;;;5086208;28;20388;-80
2021/08/07 01:19:17;;;;;;;1.02;0.93;;;12.70;95.70;;;;;;5087535;28;20392;-83
2021/08/07 01:21:54;;;;;;;1.10;1.00;;;12.80;96.20;;;;;;5086163;28;20492;-84
2021/08/07 01:24:26;;;;;;;2.10;1.00;;;12.80;96.50;;;;;;5086810;28;20392;-84
2021/08/07 01:26:59;;;;;;;1.08;0.90;;;12.90;95.90;;;;;;5083552;28;20435;-85
2021/08/07 01:29:28;;;;;;;1.58;0.85;;;13.00;95.80;;;;;;5106346;28;20404;-85
2021/08/07 01:31:56;;;;;;;1.20;0.70;;;13.00;96.10;;;;;;5087879;28;20380;-85
2021/08/07 01:34:23;;;;;;;2.55;0.80;;;13.00;96.10;;;;;;5071768;28;20766;-84
2021/08/07 01:36:51;;;;;;;1.00;0.70;;;13.10;96.10;;;;;;5088413;28;20396;-83
2021/08/07 01:39:18;;;;;;;1.02;0.82;;;13.20;95.90;;;;;;5090670;28;20399;-84
2021/08/07 01:41:45;;;;;;;1.40;0.85;;;13.30;96.10;;;;;;5087464;28;20510;-85
2021/08/07 01:44:12;;;;;;;2.20;0.80;;;13.40;95.30;;;;;;5080765;28;20851;-85
2021/08/07 01:47:04;;;;;;;2.00;0.70;;;13.50;94.70;;;;;;5072059;28;20400;-83
2021/08/07 01:49:55;;;;;;;2.65;0.90;;;13.40;94.20;;;;;;5061713;28;20883;-85
2021/08/07 01:52:31;;;;;;;2.50;0.73;;;13.40;94.00;;;;;;5065323;28;20405;-82
2021/08/07 01:55:02;;;;;;;3.20;0.90;;;13.50;94.90;;;;;;5071012;28;20386;-86
2021/08/07 01:57:33;;;;;;;0.93;0.73;;;13.60;94.50;;;;;;5064123;28;20387;-84
2021/08/07 02:00:01;;;;;;;0.70;0.70;;;13.60;93.80;;;;;;5069948;28;20426;-84
2021/08/07 02:02:30;;;;;;;1.90;0.85;;;13.60;93.80;;;;;;5067502;28;20381;-82
2021/08/07 02:04:59;;;;;;;1.55;0.70;;;13.60;92.90;;;;;;5041368;28;20882;-83
2021/08/07 02:07:29;;;;;;;1.10;0.70;;;13.70;93.50;;;;;;5033976;28;20410;-83
2021/08/07 02:09:57;;;;;;;1.27;0.70;;;13.70;92.70;;;;;;5058574;28;20372;-83
2021/08/07 02:12:24;;;;;;;0.70;0.60;;;13.80;93.00;;;;;;5040564;28;20392;-82
2021/08/07 02:14:53;;;;;;;1.10;0.80;;;13.90;92.60;;;;;;5052592;28;20380;-82
2021/08/07 02:17:21;;;;;;;0.95;0.60;;;14.00;92.60;;;;;;5059201;28;20404;-85
2021/08/07 02:19:49;;;;;;;0.82;0.70;;;14.00;91.50;;;;;;5071953;28;20444;-84
2021/08/07 02:22:19;;;;;;;0.73;0.70;;;14.00;91.60;;;;;;5068083;28;20390;-84
2021/08/07 02:24:47;;;;;;;1.05;0.68;;;14.10;92.60;;;;;;5074458;28;20374;-83
2021/08/07 02:27:14;;;;;;;1.45;0.77;;;14.00;91.20;;;;;;5054598;28;20509;-83
2021/08/07 02:29:42;;;;;;;1.42;0.60;;;14.00;92.00;;;;;;5065194;28;20385;-83
2021/08/07 02:32:11;;;;;;;0.60;0.50;;;14.10;92.90;;;;;;5057175;28;20386;-84
2021/08/07 02:34:39;;;;;;;1.30;0.75;;;14.20;92.70;;;;;;5054786;28;20409;-84
2021/08/07 02:37:06;;;;;;;1.35;0.57;;;14.40;91.80;;;;;;5056188;28;20900;-84
2021/08/07 02:39:34;;;;;;;1.60;0.50;;;14.40;91.70;;;;;;5064035;28;20390;-82
2021/08/07 02:42:02;;;;;;;0.98;0.68;;;14.60;92.40;;;;;;5074281;28;20393;-84
2021/08/07 02:44:30;;;;;;;0.60;0.60;;;14.60;91.00;;;;;;5074869;28;20395;-83
2021/08/07 02:46:57;;;;;;;1.20;0.60;;;14.60;91.40;;;;;;5069033;28;20390;-83
2021/08/07 02:49:25;;;;;;;1.17;0.70;;;14.60;90.40;;;;;;5069398;28;20479;-84
2021/08/07 02:51:54;;;;;;;1.77;0.60;;;14.30;91.30;;;;;;5049987;28;20397;-83
2021/08/07 02:54:21;;;;;;;1.20;0.80;;;14.30;90.90;;;;;;5068407;28;20394;-81
2021/08/07 02:56:48;;;;;;;2.08;0.82;;;14.20;91.00;;;;;;5069617;28;20895;-82
2021/08/07 02:59:15;;;;;;;1.65;0.90;;;14.40;91.30;;;;;;5067972;28;20398;-82
2021/08/07 03:01:42;;;;;;;2.28;0.93;;;14.40;91.80;;;;;;5066133;28;20753;-83
2021/08/07 03:04:09;;;;;;;2.75;0.70;;;14.50;91.60;;;;;;5068429;28;20481;-84
2021/08/07 03:06:36;;;;;;;1.30;0.85;;;14.70;91.10;;;;;;5078186;28;20446;-84
2021/08/07 03:09:04;;;;;;;0.70;0.65;;;15.00;90.20;;;;;;5073019;28;20376;-83
2021/08/07 03:11:31;;;;;;;0.80;0.73;;;14.90;88.30;;;;;;5034394;28;20396;-83
2021/08/07 03:13:58;;;;;;;2.88;0.82;;;14.90;90.70;;;;;;5051071;28;20379;-83
2021/08/07 03:16:28;;;;;;;1.58;1.15;;;15.10;91.00;;;;;;5061533;28;20386;-83
2021/08/07 03:18:55;;;;;;;3.20;1.10;;;15.30;90.50;;;;;;5070354;28;20480;-82
2021/08/07 03:21:22;;;;;;;1.30;1.20;;;15.30;90.40;;;;;;5053448;28;20407;-83
2021/08/07 03:23:49;;;;;;;3.13;1.23;;;15.30;88.70;;;;;;5062820;28;20835;-83
2021/08/07 03:26:16;;;;;;;2.13;1.35;;;15.40;89.00;;;;;;5069938;28;20404;-84
2021/08/07 03:28:43;;;;;;;2.20;1.00;;;15.40;87.10;;;;;;5051851;28;20382;-82
2021/08/07 03:31:10;;;;;;;1.52;1.10;;;15.50;87.50;;;;;;5038502;28;20434;-82
2021/08/07 03:33:37;;;;;;;3.10;1.40;;;15.50;88.50;;;;;;5050338;28;20378;-84
2021/08/07 03:36:05;;;;;;;1.65;1.50;;;15.50;89.40;;;;;;5049791;28;20847;-83
2021/08/07 03:38:32;;;;;;;3.80;1.50;;;15.30;87.80;;;;;;5043642;28;20837;-82
2021/08/07 03:40:59;;;;;;;3.08;1.40;;;15.40;90.00;;;;;;5073473;28;20358;-81
2021/08/07 03:43:29;;;;;;;3.17;1.30;;;15.50;90.10;;;;;;5069978;28;20898;-82
2021/08/07 03:45:56;;;;;;;1.38;1.25;;;15.60;88.30;;;;;;5053733;28;20389;-82
2021/08/07 03:48:24;;;;;;;2.35;1.30;;;15.50;89.00;;;;;;5051676;28;21931;-83
2021/08/07 03:50:51;;;;;;;1.30;0.95;;;15.50;88.00;;;;;;5065363;28;20376;-81
2021/08/07 03:53:18;;;;;;;1.10;1.00;;;15.50;90.00;;;;;;5050021;28;20396;-82
2021/08/07 03:55:48;;;;;;;1.13;1.00;;;15.60;90.10;;;;;;5049881;28;20847;-83
2021/08/07 03:58:15;;;;;;;1.48;1.10;;;15.60;89.70;;;;;;5048352;28;20390;-83
2021/08/07 04:00:42;;;;;;;1.20;1.02;;;15.80;89.00;;;;;;5049622;28;20386;-81
2021/08/07 04:03:09;;;;;;;1.42;1.00;;;15.80;88.90;;;;;;5048789;28;20851;-82
2021/08/07 04:05:36;;;;;;;3.40;1.08;;;15.90;89.30;;;;;;5050306;28;20446;-82
2021/08/07 04:08:11;;;;;;;2.00;1.08;;;15.80;88.70;;;;;;5050253;28;20414;-83
2021/08/07 04:10:40;;;;;;;1.65;1.05;;;15.80;89.30;;;;;;5049894;28;20426;-81
2021/08/07 04:13:07;;;;;;;2.95;1.10;;;15.80;88.90;;;;;;5049403;28;20391;-82
2021/08/07 04:15:34;;;;;;;2.35;0.90;;;15.80;88.90;;;;;;5049504;28;20411;-81
2021/08/07 04:18:01;;;;;;;2.00;0.90;;;15.90;89.70;;;;;;5065793;28;20386;-80
2021/08/07 04:20:28;;;;;;;1.50;1.10;;;15.80;90.00;;;;;;5050355;28;20902;-81
2021/08/07 04:22:55;;;;;;;1.88;1.05;;;15.80;89.30;;;;;;5066547;28;20775;-80
2021/08/07 04:25:23;;;;;;;1.30;0.80;;;15.80;89.20;;;;;;5049771;28;20376;-81
2021/08/07 04:27:50;;;;;;;0.85;0.85;;;15.80;85.80;;;;;;5061509;28;20406;-81
2021/08/07 04:30:17;;;;;;;2.20;1.00;;;15.80;89.20;;;;;;5069783;28;20370;-80
2021/08/07 04:32:45;;;;;;;2.50;1.00;;;15.80;89.80;;;;;;5074350;28;20378;-81
2021/08/07 04:35:13;;;;;;;2.10;1.20;;;15.80;90.30;;;;;;5075762;28;20466;-80
2021/08/07 04:37:55;;;;;;;1.07;0.80;;;15.80;90.00;;;;;;5079732;28;20378;-81
2021/08/07 04:40:29;;;;;;;0.80;0.80;;;15.90;89.50;;;;;;5073176;28;20390;-80
2021/08/07 04:42:56;;;;;;;1.55;0.90;;;15.90;89.80;;;;;;5082628;28;20366;-80
2021/08/07 04:45:23;;;;;;;1.37;0.97;;;15.90;88.30;;;;;;5075743;28;20461;-80
2021/08/07 04:48:05;;;;;;;2.30;0.90;;;15.90;87.90;;;;;;5078096;28;20406;-81
2021/08/07 04:50:35;;;;;;;1.00;0.80;;;15.90;87.50;;;;;;5079988;28;20407;-81
2021/08/07 04:53:06;;;;;;;1.67;1.05;;;15.90;87.60;;;;;;5061689;28;20378;-81
2021/08/07 04:55:35;;;;;;;2.50;1.10;;;15.80;88.60;;;;;;5062612;28;20423;-81
2021/08/07 04:58:02;;;;;;;2.33;0.90;;;15.80;89.40;;;;;;5058164;28;20382;-82
2021/08/07 05:00:31;;;;;;;1.10;1.00;;;15.80;89.00;;;;;;5072751;28;20476;-82
2021/08/07 05:02:58;;;;;;;44.90;34.30;;;15.90;87.20;;;;;;5064085;28;20443;-82
2021/08/07 05:05:39;;;;;;;4.20;2.47;;;15.80;90.60;;;;;;5065578;28;20414;-86
2021/08/07 05:08:06;;;;;;;14.77;3.08;;;15.80;89.80;;;;;;5049564;28;20443;-84
2021/08/07 05:10:37;;;;;;;3.10;1.38;;;15.80;90.10;;;;;;5082222;28;20422;-84
2021/08/07 05:13:04;;;;;;;1.92;1.38;;;15.70;89.80;;;;;;5080238;28;21587;-84
2021/08/07 05:15:31;;;;;;;2.47;1.10;;;15.70;89.90;;;;;;5083320;28;20385;-88
2021/08/07 05:17:58;;;;;;;2.90;1.48;;;15.60;90.00;;;;;;5070283;28;20385;-84
2021/08/07 05:20:29;;;;;;;1.00;0.90;;;15.60;89.40;;;;;;5095184;28;20445;-83
2021/08/07 05:23:03;;;;;;;1.58;1.20;;;15.60;88.80;;;;;;5086531;28;20374;-85
2021/08/07 05:25:45;;;;;;;1.48;1.17;;;15.60;88.70;;;;;;5068019;28;20385;-87
2021/08/07 05:28:14;;;;;;;2.38;1.08;;;15.60;90.00;;;;;;5069059;28;20405;-88
2021/08/07 05:30:48;;;;;;;10.40;2.20;;;15.50;90.50;;;;;;5070862;28;20390;-88
2021/08/07 05:33:20;;;;;;;4.07;1.13;;;15.50;90.80;;;;;;5088908;28;20379;-92
2021/08/07 05:35:47;;;;;;;4.07;1.10;;;15.40;90.30;;;;;;5055054;28;20382;-86
2021/08/07 05:38:18;;;;;;;5.60;1.17;;;15.40;90.90;;;;;;5068680;28;20398;-92
2021/08/07 05:40:47;;;;;;;7.70;1.40;;;15.40;91.20;;;;;;5059091;28;20409;-88
2021/08/07 05:43:18;;;;;;;3.90;1.00;;;15.40;91.20;;;;;;5069305;28;20402;-88
2021/08/07 05:45:46;;;;;;;1.55;0.98;;;15.40;91.20;;;;;;5072384;28;20363;-89
2021/08/07 05:48:13;;;;;;;1.80;1.10;;;15.40;91.30;;;;;;5061260;28;20410;-86
2021/08/07 05:50:40;;;;;;;78.43;6.88;;;15.40;91.30;;;;;;5076987;28;20488;-88
2021/08/07 05:53:07;;;;;;;26.77;2.75;;;15.30;91.90;;;;;;5065886;28;20405;-87
2021/08/07 05:55:36;;;;;;;4.65;1.20;;;15.30;91.60;;;;;;5060785;28;20382;-86
2021/08/07 05:58:04;;;;;;;7.75;1.40;;;15.30;91.50;;;;;;5077885;28;20374;-87
2021/08/07 06:00:34;;;;;;;7.78;5.53;;;15.30;91.70;;;;;;5089229;28;20499;-85
2021/08/07 06:03:01;;;;;;;5.60;2.45;;;15.20;91.90;;;;;;5079544;28;20479;-87
2021/08/07 06:05:28;;;;;;;3.60;1.10;;;15.20;91.20;;;;;;5097302;28;20416;-85
2021/08/07 06:07:55;;;;;;;71.18;16.95;;;15.20;91.00;;;;;;5077328;28;20429;-86
2021/08/07 06:10:30;;;;;;;12.13;1.70;;;15.20;91.80;;;;;;5067227;28;20955;-87
2021/08/07 06:13:03;;;;;;;6.25;1.90;;;15.20;91.50;;;;;;5082220;28;20394;-86
2021/08/07 06:15:33;;;;;;;78.50;7.05;;;15.10;91.90;;;;;;5082573;28;20370;-86
2021/08/07 06:18:15;;;;;;;6.38;1.10;;;15.00;93.10;;;;;;5092020;28;20393;-87
2021/08/07 06:20:42;;;;;;;4.30;1.00;;;15.10;91.20;;;;;;5086111;28;20974;-83
2021/08/07 06:23:09;;;;;;;2.30;0.80;;;15.00;92.30;;;;;;5084515;28;20380;-85
2021/08/07 06:25:38;;;;;;;3.10;2.80;;;15.00;92.30;;;;;;5086197;28;20380;-89
2021/08/07 06:28:08;;;;;;;9.55;1.50;;;14.90;92.60;;;;;;5118688;28;20515;-89
2021/08/07 06:30:42;;;;;;;3.63;1.25;;;14.80;93.10;;;;;;5102127;28;20399;-90
2021/08/07 06:33:10;;;;;;;2.05;0.93;;;14.80;92.80;;;;;;5088438;28;20377;-90
2021/08/07 06:35:41;;;;;;;87.00;6.55;;;14.70;93.00;;;;;;5104497;28;20403;-87
2021/08/07 06:38:11;;;;;;;8.33;1.00;;;14.70;93.40;;;;;;5087775;28;20438;-88
2021/08/07 06:40:42;;;;;;;81.65;68.95;;;14.70;93.20;;;;;;5091037;28;20408;-92
2021/08/07 06:43:16;;;;;;;49.53;30.75;;;14.60;94.00;;;;;;5106682;28;20383;-87
2021/08/07 06:45:44;;;;;;;25.23;3.10;;;14.50;94.30;;;;;;5105313;28;20476;-89
2021/08/07 06:48:11;;;;;;;2.78;1.20;;;14.50;94.20;;;;;;5086495;28;20499;-88
2021/08/07 06:51:04;;;;;;;249.82;18.80;;;14.40;94.00;;;;;;5051912;28;20397;-88
2021/08/07 06:53:51;;;;;;;14.23;1.67;;;14.40;95.00;;;;;;5071186;28;20424;-87
2021/08/07 06:56:29;;;;;;;4.40;1.40;;;14.30;94.70;;;;;;5099249;28;20424;-91
2021/08/07 06:58:56;;;;;;;6.75;1.60;;;14.20;95.00;;;;;;5048400;28;20401;-93
2021/08/07 07:01:23;;;;;;;5.53;3.25;;;14.20;95.50;;;;;;5069403;28;20386;-94
2021/08/07 07:03:53;;;;;;;6.55;3.75;;;14.00;96.30;;;;;;5065203;28;20522;-94
2021/08/07 07:06:21;;;;;;;2.40;1.40;;;14.00;96.50;;;;;;5053543;28;20410;-88
2021/08/07 07:08:49;;;;;;;1.45;1.15;;;13.90;97.20;;;;;;5071418;28;20535;-88
2021/08/07 07:11:16;;;;;;;4.07;1.50;;;13.90;97.50;;;;;;5067118;28;20379;-91
2021/08/07 07:13:45;;;;;;;2.40;1.30;;;13.80;97.90;;;;;;5052550;28;20840;-90
2021/08/07 07:16:14;;;;;;;1.42;1.05;;;13.70;97.90;;;;;;5054573;28;20388;-90
2021/08/07 07:18:41;;;;;;;2.17;1.10;;;13.60;98.40;;;;;;5047416;28;20444;-90
2021/08/07 07:21:11;;;;;;;2.47;1.20;;;13.50;99.60;;;;;;5050316;28;20811;-88
2021/08/07 07:23:43;;;;;;;2.42;1.20;;;13.40;99.90;;;;;;5044191;28;20437;-88
2021/08/07 07:26:31;;;;;;;2.63;1.40;;;13.30;99.90;;;;;;5068014;28;20400;-88
2021/08/07 07:29:01;;;;;;;2.00;1.80;;;13.20;99.90;;;;;;5084973;28;20405;-89
2021/08/07 07:31:36;;;;;;;3.15;2.00;;;13.20;99.90;;;;;;5035059;28;20912;-86
2021/08/07 07:34:04;;;;;;;3.57;2.40;;;13.10;99.90;;;;;;5065513;28;20409;-88
2021/08/07 07:36:32;;;;;;;3.42;2.30;;;13.00;99.90;;;;;;5046790;28;20404;-88
2021/08/07 07:39:03;;;;;;;4.30;2.10;;;12.90;99.90;;;;;;5034133;28;20421;-88
2021/08/07 07:41:30;;;;;;;2.88;2.50;;;12.80;99.90;;;;;;5049840;28;20405;-88
2021/08/07 07:44:02;;;;;;;3.08;2.30;;;12.70;99.90;;;;;;5064968;28;20386;-88
2021/08/07 07:46:30;;;;;;;4.63;2.75;;;12.60;99.90;;;;;;5048220;28;20914;-87
2021/08/07 07:49:04;;;;;;;6.15;2.90;;;12.50;99.90;;;;;;5085405;28;20396;-85
2021/08/07 07:51:37;;;;;;;4.80;2.53;;;12.40;99.90;;;;;;5044020;28;20449;-85
2021/08/07 07:54:04;;;;;;;5.15;2.58;;;12.40;99.90;;;;;;5070351;28;20458;-85
2021/08/07 07:56:32;;;;;;;2.80;2.50;;;12.30;99.90;;;;;;5058231;28;20388;-86
2021/08/07 07:59:11;;;;;;;5.78;3.05;;;12.20;99.90;;;;;;5060313;28;20409;-85
2021/08/07 08:01:41;;;;;;;3.47;2.70;;;12.20;99.90;;;;;;5068523;28;20432;-85
2021/08/07 08:04:11;;;;;;;5.07;3.70;;;12.10;99.90;;;;;;5052564;28;20436;-85
2021/08/07 08:06:38;;;;;;;4.55;3.72;;;12.00;99.90;;;;;;5062340;28;20389;-85
2021/08/07 08:09:12;;;;;;;5.13;4.10;;;12.00;99.90;;;;;;5067130;28;20958;-84
2021/08/07 08:11:40;;;;;;;4.35;3.95;;;12.00;99.90;;;;;;5052228;28;20420;-85
2021/08/07 08:14:09;;;;;;;4.07;2.70;;;11.90;99.90;;;;;;5053855;28;20409;-86
2021/08/07 08:16:39;;;;;;;3.50;2.88;;;11.90;99.90;;;;;;5059533;28;20728;-85
2021/08/07 08:19:11;;;;;;;10.18;6.03;;;12.00;99.40;;;;;;5069506;28;20390;-87
2021/08/07 08:21:38;;;;;;;5.32;4.80;;;12.00;99.20;;;;;;5055076;28;20388;-86
2021/08/07 08:24:05;;;;;;;4.95;3.60;;;12.00;99.00;;;;;;5032796;28;20795;-86
2021/08/07 08:26:32;;;;;;;4.28;3.17;;;12.00;99.00;;;;;;5055266;28;20405;-89
2021/08/07 08:29:00;;;;;;;3.67;2.80;;;12.00;98.50;;;;;;5070288;28;20449;-86
2021/08/07 08:31:28;;;;;;;2.65;2.30;;;12.10;97.50;;;;;;5055243;28;20435;-88
2021/08/07 08:33:55;;;;;;;4.43;2.50;;;12.10;97.80;;;;;;5054841;28;20436;-87
2021/08/07 08:36:22;;;;;;;2.50;1.63;;;12.10;98.00;;;;;;5040266;28;20401;-86
2021/08/07 08:38:50;;;;;;;2.93;2.00;;;12.10;97.30;;;;;;5056101;28;20773;-85
2021/08/07 08:41:18;;;;;;;4.38;1.60;;;12.00;97.70;;;;;;5037447;28;20378;-86
2021/08/07 08:43:53;;;;;;;2.93;2.63;;;12.10;97.80;;;;;;5052359;28;20535;-86
2021/08/07 08:46:20;;;;;;;3.30;3.00;;;12.00;97.50;;;;;;5045460;28;20398;-87
2021/08/07 08:48:47;;;;;;;3.22;2.50;;;12.10;97.50;;;;;;5067945;28;20458;-87
2021/08/07 08:51:15;;;;;;;4.38;3.00;;;12.00;97.40;;;;;;5073972;28;20875;-87
2021/08/07 08:53:44;;;;;;;7.35;3.65;;;12.00;97.60;;;;;;5037457;28;20912;-86
2021/08/07 08:56:15;;;;;;;2.90;2.70;;;11.90;97.30;;;;;;5072220;28;20745;-88
2021/08/07 08:58:44;;;;;;;3.78;2.85;;;11.90;97.50;;;;;;5053350;28;20809;-87
2021/08/07 09:01:16;;;;;;;3.50;2.63;;;11.90;97.60;;;;;;5053693;28;20393;-87
2021/08/07 09:03:45;;;;;;;3.00;2.05;;;11.90;97.70;;;;;;5053081;28;20404;-86
2021/08/07 09:06:18;;;;;;;2.20;1.90;;;11.90;97.20;;;;;;5088384;28;20388;-86
2021/08/07 09:09:09;;;;;;;2.60;1.83;;;11.90;97.90;;;;;;5081097;28;20398;-85
2021/08/07 09:11:41;;;;;;;2.33;2.13;;;11.80;97.90;;;;;;5049815;28;20389;-83
2021/08/07 09:14:17;;;;;;;2.78;2.50;;;11.80;98.30;;;;;;5088027;28;20461;-84
2021/08/07 09:17:00;;;;;;;3.17;2.33;;;11.70;98.10;;;;;;5070962;28;20396;-84
2021/08/07 09:20:03;;;;;;;6.85;6.22;;;11.80;97.90;;;;;;5070324;28;20820;-84
2021/08/07 09:22:33;;;;;;;9.10;7.70;;;11.80;97.90;;;;;;5043731;28;20803;-86
2021/08/07 09:25:16;;;;;;;2.70;2.50;;;11.80;98.00;;;;;;5053707;28;20397;-88
2021/08/07 09:27:55;;;;;;;2.40;2.03;;;11.80;97.60;;;;;;5073532;28;20402;-86
2021/08/07 09:30:25;;;;;;;2.27;2.07;;;11.80;97.90;;;;;;5053733;28;20390;-86
2021/08/07 09:33:03;;;;;;;2.80;2.58;;;11.70;98.30;;;;;;5074255;28;20447;-87
2021/08/07 09:35:49;;;;;;;4.80;2.00;;;11.50;98.50;;;;;;5056627;28;20795;-86
2021/08/07 09:38:23;;;;;;;2.90;1.50;;;11.50;98.00;;;;;;5087589;28;21012;-87
2021/08/07 09:40:54;;;;;;;1.65;1.52;;;11.50;98.20;;;;;;5073332;28;20493;-87
2021/08/07 09:43:31;;;;;;;3.42;2.63;;;11.60;97.80;;;;;;5058060;28;20756;-88
2021/08/07 09:46:14;;;;;;;3.63;2.35;;;11.50;97.80;;;;;;5078381;28;20529;-84
2021/08/07 09:48:56;;;;;;;1.73;1.55;;;11.50;97.90;;;;;;5082820;28;20414;-85
2021/08/07 09:51:35;;;;;;;3.95;2.95;;;11.50;97.80;;;;;;5075957;28;20465;-84
2021/08/07 09:54:23;;;;;;;2.33;1.83;;;11.50;97.90;;;;;;5043661;28;20473;-85
2021/08/07 09:56:58;;;;;;;1.50;1.30;;;11.40;98.00;;;;;;5073229;28;20469;-86
2021/08/07 09:59:29;;;;;;;2.42;1.75;;;11.30;98.20;;;;;;5061873;28;20406;-85
2021/08/07 10:02:26;;;;;;;2.03;1.85;;;11.20;98.60;;;;;;5071644;28;20398;-84
2021/08/07 10:04:56;;;;;;;3.17;2.58;;;11.30;98.50;;;;;;5040139;28;20390;-87
2021/08/07 10:07:23;;;;;;;3.42;2.03;;;11.20;98.80;;;;;;5046643;28;20966;-87
2021/08/07 10:09:53;;;;;;;2.40;2.03;;;11.20;98.90;;;;;;5044860;28;20386;-86
2021/08/07 10:12:23;;;;;;;2.63;1.90;;;11.30;98.60;;;;;;5038454;28;20793;-86
2021/08/07 10:14:55;;;;;;;2.35;2.15;;;11.20;98.90;;;;;;5069147;28;20398;-85
2021/08/07 10:17:36;;;;;;;4.82;3.28;;;11.10;99.40;;;;;;5039032;28;20412;-85
2021/08/07 10:20:13;;;;;;;5.57;3.88;;;10.90;99.90;;;;;;5065605;28;20568;-86
2021/08/07 10:22:44;;;;;;;4.00;3.60;;;10.90;99.90;;;;;;5054891;28;20398;-86
2021/08/07 10:25:13;;;;;;;5.40;4.40;;;10.80;99.90;;;;;;5051798;28;20389;-86
2021/08/07 10:27:46;;;;;;;4.47;3.15;;;10.70;99.90;;;;;;5048947;28;20406;-86
2021/08/07 10:30:16;;;;;;;5.03;2.90;;;10.60;99.90;;;;;;5031664;28;20482;-86
2021/08/07 10:33:00;;;;;;;3.72;3.20;;;10.50;99.90;;;;;;5069119;28;20418;-86
2021/08/07 10:35:30;;;;;;;4.07;3.10;;;10.40;99.90;;;;;;5051306;28;20374;-86
2021/08/07 10:38:01;;;;;;;3.45;2.80;;;10.40;99.90;;;;;;5042366;28;20481;-84
2021/08/07 10:40:30;;;;;;;5.40;3.47;;;10.40;99.90;;;;;;5029092;28;20388;-87
2021/08/07 10:43:06;;;;;;;3.47;2.80;;;10.30;99.90;;;;;;5029890;28;20578;-87
2021/08/07 10:45:50;;;;;;;4.32;3.47;;;10.30;99.90;;;;;;5049583;28;20455;-87
2021/08/07 10:48:38;;;;;;;4.20;2.87;;;10.30;99.90;;;;;;5032298;28;21046;-87
2021/08/07 10:51:23;;;;;;;5.32;2.83;;;10.30;99.90;;;;;;5050124;28;20384;-87
2021/08/07 10:54:08;;;;;;;3.05;2.75;;;10.30;99.90;;;;;;5084494;28;20426;-86
2021/08/07 10:56:44;;;;;;;3.70;2.90;;;10.20;99.90;;;;;;5070647;28;20447;-86
2021/08/07 10:59:11;;;;;;;2.95;2.63;;;10.20;99.90;;;;;;5076094;28;20441;-86
2021/08/07 11:01:42;;;;;;;3.22;2.92;;;10.10;99.90;;;;;;5069143;28;20752;-86
2021/08/07 11:04:23;;;;;;;3.20;2.70;;;10.10;99.90;;;;;;5068421;28;20406;-85
2021/08/07 11:06:59;;;;;;;2.58;2.38;;;10.00;99.90;;;;;;5076252;28;20407;-85
2021/08/07 11:09:35;;;;;;;4.75;2.70;;;10.00;99.90;;;;;;5052440;28;20397;-87
2021/08/07 11:12:10;;;;;;;3.17;2.50;;;10.00;99.90;;;;;;5100918;28;20440;-86
2021/08/07 11:14:47;;;;;;;3.65;2.42;;;9.90;99.90;;;;;;5083424;28;20403;-87
2021/08/07 11:17:14;;;;;;;2.27;2.07;;;9.80;99.90;;;;;;5087566;28;20485;-84
2021/08/07 11:20:07;;;;;;;4.05;3.15;;;9.80;99.90;;;;;;5084589;28;20498;-85
2021/08/07 11:22:36;;;;;;;3.30;2.50;;;9.70;99.90;;;;;;5072198;28;21200;-85
2021/08/07 11:25:07;;;;;;;3.47;3.17;;;9.70;99.90;;;;;;5101090;28;20396;-85
2021/08/07 11:28:01;;;;;;;5.28;4.47;;;9.60;99.90;;;;;;5087956;28;20767;-85
2021/08/07 11:30:35;;;;;;;3.55;3.25;;;9.60;99.90;;;;;;5081469;28;20418;-84
2021/08/07 11:33:04;;;;;;;4.40;3.10;;;9.50;99.90;;;;;;5071679;28;20893;-85
2021/08/07 11:35:42;;;;;;;4.07;2.83;;;9.50;99.90;;;;;;5062241;28;20411;-86
2021/08/07 11:38:31;;;;;;;3.03;2.60;;;9.40;99.90;;;;;;5073175;28;20440;-85
2021/08/07 11:41:09;;;;;;;3.50;2.75;;;9.40;99.90;;;;;;5068938;28;20900;-83
2021/08/07 11:43:49;;;;;;;5.05;3.17;;;9.40;99.90;;;;;;5053025;28;20433;-84
2021/08/07 11:46:17;;;;;;;3.70;3.35;;;9.40;99.90;;;;;;5087789;28;20759;-84
2021/08/07 11:48:48;;;;;;;4.72;3.08;;;9.40;99.90;;;;;;5072534;28;20400;-85
2021/08/07 11:51:24;;;;;;;5.43;3.60;;;9.30;99.90;;;;;;5071085;28;20392;-82
2021/08/07 11:53:51;;;;;;;5.38;4.00;;;9.30;99.90;;;;;;5069270;28;20970;-84
2021/08/07 11:56:23;;;;;;;5.97;4.10;;;9.30;99.90;;;;;;5088050;28;20404;-83
2021/08/07 11:58:56;;;;;;;5.13;3.70;;;9.30;99.90;;;;;;5070283;28;20473;-83
2021/08/07 12:01:28;;;;;;;4.07;3.20;;;9.30;99.90;;;;;;5088265;28;20396;-83
2021/08/07 12:03:57;;;;;;;4.45;3.10;;;9.30;99.90;;;;;;5088584;28;20415;-82
2021/08/07 12:06:28;;;;;;;4.70;2.92;;;9.30;99.90;;;;;;5082156;28;20752;-83
2021/08/07 12:08:55;;;;;;;4.18;3.20;;;9.30;99.90;;;;;;5103537;28;20426;-83
2021/08/07 12:11:23;;;;;;;4.72;3.50;;;9.40;99.90;;;;;;5071314;28;20381;-83
2021/08/07 12:13:53;;;;;;;3.72;2.75;;;9.30;99.90;;;;;;5070088;28;20438;-83
2021/08/07 12:16:33;;;;;;;3.92;3.10;;;9.20;99.90;;;;;;5063945;28;20486;-83
2021/08/07 12:19:04;;;;;;;7.55;3.08;;;9.10;99.90;;;;;;5085415;28;20874;-82
2021/08/07 12:21:34;;;;;;;3.30;2.50;;;9.10;99.90;;;;;;5070857;28;20813;-83
2021/08/07 12:24:10;;;;;;;3.30;2.17;;;9.00;99.90;;;;;;5084889;28;20759;-84
2021/08/07 12:26:50;;;;;;;2.93;2.30;;;9.00;99.90;;;;;;5071377;28;20384;-83
2021/08/07 12:29:20;;;;;;;2.80;1.90;;;8.90;99.90;;;;;;5068827;28;20487;-82
2021/08/07 12:31:48;;;;;;;3.07;2.33;;;9.00;99.90;;;;;;5089064;28;20380;-83
2021/08/07 12:34:21;;;;;;;1.90;1.73;;;9.00;99.90;;;;;;5086850;28;20438;-82
2021/08/07 12:37:00;;;;;;;2.65;2.00;;;9.00;99.90;;;;;;5067868;28;20401;-83
2021/08/07 12:39:29;;;;;;;2.42;1.75;;;9.10;99.90;;;;;;5087829;28;20396;-82
2021/08/07 12:41:57;;;;;;;2.13;1.92;;;9.20;99.90;;;;;;5069275;28;20400;-82
2021/08/07 12:44:26;;;;;;;4.23;1.77;;;9.20;99.90;;;;;;5070042;28;20408;-82
2021/08/07 12:46:56;;;;;;;2.67;1.77;;;9.20;99.90;;;;;;5083824;28;21058;-82
2021/08/07 12:49:44;;;;;;;2.42;1.80;;;9.10;99.90;;;;;;5087106;28;20816;-82
2021/08/07 12:52:17;;;;;;;3.78;1.88;;;9.10;99.90;;;;;;5068442;28;20426;-82
2021/08/07 12:55:05;;;;;;;1.85;1.65;;;9.10;99.90;;;;;;5088239;28;20903;-82
2021/08/07 12:57:33;;;;;;;1.80;1.70;;;9.00;99.90;;;;;;5081916;28;20414;-82
2021/08/07 13:00:00;;;;;;;2.53;2.17;;;8.90;99.90;;;;;;5067783;28;20380;-82
2021/08/07 13:02:30;;;;;;;2.20;2.00;;;8.80;99.90;;;;;;5068185;28;21221;-82
2021/08/07 13:04:58;;;;;;;4.18;2.22;;;8.80;99.90;;;;;;5086798;28;20396;-82
2021/08/07 13:07:33;;;;;;;2.50;2.20;;;8.70;99.90;;;;;;5064787;28;20416;-82
2021/08/07 13:10:28;;;;;;;2.38;2.05;;;8.70;99.90;;;;;;5087243;28;20438;-82